createdAt,value
2023-02-02T00:04:29.156Z,67.83
2023-02-02T00:09:29.944Z,67.24
2023-02-02T00:14:30.926Z,66.67
2023-02-02T00:19:31.692Z,66.51
2023-02-02T00:24:30.581Z,65.73
2023-02-02T00:29:32.342Z,66.16
2023-02-02T00:34:31.210Z,66.25
2023-02-02T00:39:29.967Z,66.24
2023-02-02T00:44:47.451Z,66.77
2023-02-02T00:49:46.721Z,67.88
2023-02-02T00:54:45.515Z,67.62
2023-02-02T00:59:45.775Z,68.50
2023-02-02T01:04:44.646Z,69.50
2023-02-02T01:09:43.535Z,69.38
2023-02-02T01:14:42.393Z,70.25
2023-02-02T01:19:42.810Z,71.29
2023-02-02T01:24:41.933Z,72.34
2023-02-02T01:29:40.853Z,73.23
2023-02-02T01:34:41.798Z,72.56
2023-02-02T01:39:42.025Z,73.89
2023-02-02T01:45:05.926Z,76.33
2023-02-02T01:50:07.432Z,77.17
2023-02-02T01:55:11.642Z,76.81
2023-02-02T02:00:15.038Z,77.54
2023-02-02T02:05:17.382Z,78.25
2023-02-02T02:10:19.335Z,79.62
2023-02-02T02:15:35.876Z,79.49
2023-02-02T02:21:26.519Z,81.70
2023-02-02T02:26:50.086Z,82.20
2023-02-02T02:32:12.578Z,80.96
2023-02-02T02:37:18.001Z,81.83
2023-02-02T02:42:21.577Z,82.82
2023-02-02T02:47:23.912Z,82.22
2023-02-02T02:52:23.333Z,82.61
2023-02-02T02:57:40.065Z,82.31
2023-02-02T03:02:49.482Z,82.87
2023-02-02T03:07:53.204Z,81.27
2023-02-02T03:12:52.865Z,82.34
2023-02-02T03:17:55.049Z,80.83
2023-02-02T03:22:53.894Z,81.19
2023-02-02T03:27:53.065Z,81.82
2023-02-02T03:32:54.487Z,81.43
2023-02-02T03:37:53.805Z,80.70
2023-02-02T03:42:52.891Z,81.34
2023-02-02T03:47:53.169Z,82.41
2023-02-02T03:52:52.091Z,82.38
2023-02-02T03:57:51.077Z,81.43
2023-02-02T04:02:50.040Z,81.22
2023-02-02T04:07:50.354Z,81.40
2023-02-02T04:12:49.359Z,82.22
2023-02-02T04:17:48.337Z,81.71
2023-02-02T04:22:47.292Z,80.91
2023-02-02T04:27:47.612Z,80.58
2023-02-02T04:32:46.899Z,80.07
2023-02-02T04:37:45.717Z,79.72
2023-02-02T04:42:45.531Z,79.03
2023-02-02T04:47:45.774Z,78.89
2023-02-02T04:52:44.618Z,79.26
2023-02-02T04:57:43.683Z,80.06
2023-02-02T05:02:43.502Z,80.34
2023-02-02T05:07:43.951Z,80.25
2023-02-02T05:12:42.812Z,79.16
2023-02-02T05:17:42.114Z,78.61
2023-02-02T05:22:44.113Z,79.93
2023-02-02T05:27:46.083Z,80.54
2023-02-02T05:32:44.838Z,79.72
2023-02-02T05:37:44.697Z,79.54
2023-02-02T05:42:43.546Z,79.28
2023-02-02T05:47:44.033Z,78.89
2023-02-02T05:52:44.197Z,79.17
2023-02-02T05:57:43.054Z,79.78
2023-02-02T06:02:43.503Z,80.78
2023-02-02T06:07:42.474Z,81.88
2023-02-02T06:12:41.837Z,80.04
2023-02-02T06:17:41.108Z,79.32
2023-02-02T06:22:43.254Z,79.05
2023-02-02T06:27:42.171Z,79.27
2023-02-02T06:32:41.580Z,79.21
2023-02-02T06:37:42.316Z,79.88
2023-02-02T06:42:41.604Z,79.55
2023-02-02T06:47:40.623Z,80.00
2023-02-02T06:52:39.387Z,78.97
2023-02-02T06:57:39.795Z,80.02
2023-02-02T07:02:38.768Z,79.12
2023-02-02T07:07:37.716Z,77.84
2023-02-02T07:12:36.558Z,78.57
2023-02-02T07:17:36.978Z,79.44
2023-02-02T07:22:35.931Z,80.01
2023-02-02T07:27:34.854Z,79.99
2023-02-02T07:32:33.790Z,80.19
2023-02-02T07:37:34.177Z,79.41
2023-02-02T07:42:33.238Z,78.02
2023-02-02T07:47:32.548Z,77.83
2023-02-02T07:52:31.590Z,76.64
2023-02-02T07:57:32.004Z,75.54
2023-02-02T08:02:36.546Z,76.43
2023-02-02T08:07:36.151Z,75.99
2023-02-02T08:12:36.794Z,76.19
2023-02-02T08:17:46.295Z,76.10
2023-02-02T08:22:45.638Z,75.62
2023-02-02T08:27:48.498Z,73.98
2023-02-02T08:32:57.106Z,73.50
2023-02-02T08:37:56.485Z,73.69
2023-02-02T08:42:57.083Z,71.84
2023-02-02T08:48:10.387Z,72.03
2023-02-02T08:53:10.571Z,73.29
2023-02-02T08:58:13.546Z,72.43
2023-02-02T09:03:19.551Z,72.13
2023-02-02T09:08:18.508Z,70.94
2023-02-02T09:13:26.338Z,69.72
2023-02-02T09:18:56.377Z,69.14
2023-02-02T09:29:35.082Z,69.43
2023-02-02T09:34:48.052Z,69.40
2023-02-02T09:40:15.091Z,68.72
2023-02-02T09:45:37.827Z,68.42
2023-02-02T09:50:43.870Z,69.40
2023-02-02T09:55:46.667Z,67.62
2023-02-02T10:01:04.838Z,66.50
2023-02-02T10:06:21.533Z,62.29
2023-02-02T10:11:30.936Z,58.36
2023-02-02T10:16:32.563Z,56.99
2023-02-02T10:21:41.319Z,55.62
2023-02-02T10:26:45.317Z,56.16
2023-02-02T10:31:57.634Z,55.31
2023-02-02T10:37:23.907Z,54.50
2023-02-02T10:42:32.022Z,56.21
2023-02-02T10:47:36.309Z,56.33
2023-02-02T10:52:39.943Z,56.23
2023-02-02T10:57:50.909Z,55.70
2023-02-02T11:02:53.312Z,54.83
2023-02-02T11:07:56.735Z,54.33
2023-02-02T11:13:01.870Z,55.67
2023-02-02T11:18:17.887Z,56.02
2023-02-02T11:23:20.796Z,57.21
2023-02-02T11:28:24.455Z,55.18
2023-02-02T11:33:35.339Z,55.55
2023-02-02T11:38:37.765Z,55.41
2023-02-02T11:43:44.846Z,54.45
2023-02-02T11:48:53.399Z,54.17
2023-02-02T11:54:05.948Z,54.26
2023-02-02T11:59:06.581Z,54.52
2023-02-02T12:04:26.865Z,56.19
2023-02-02T12:09:28.866Z,57.04
2023-02-02T12:14:37.727Z,57.78
2023-02-02T12:20:06.870Z,56.94
2023-02-02T12:25:52.302Z,57.93
2023-02-02T12:31:13.585Z,59.48
2023-02-02T12:36:32.043Z,60.64
2023-02-02T12:41:52.253Z,63.60
2023-02-02T12:47:16.143Z,65.88
2023-02-02T12:52:41.325Z,67.20
2023-02-02T13:10:19.790Z,70.27
2023-02-02T13:15:24.212Z,71.44
2023-02-02T13:20:35.969Z,72.08
2023-02-02T13:25:45.094Z,74.09
2023-02-02T13:30:49.895Z,74.30
2023-02-02T13:35:59.231Z,74.44
2023-02-02T13:41:08.423Z,76.17
2023-02-02T13:46:19.930Z,75.60
2023-02-02T13:51:46.569Z,73.95
2023-02-02T13:56:56.228Z,74.61
2023-02-02T14:02:02.809Z,74.31
2023-02-02T14:12:36.790Z,75.76
2023-02-02T14:17:56.488Z,74.60
2023-02-02T14:23:05.984Z,74.81
2023-02-02T14:28:12.999Z,74.78
2023-02-02T14:46:39.974Z,74.36
2023-02-02T14:52:27.649Z,75.65
2023-02-02T14:57:49.953Z,76.71
2023-02-02T15:28:41.061Z,78.76
2023-02-02T15:34:02.063Z,79.99
2023-02-02T15:39:28.358Z,81.85
2023-02-02T15:44:42.573Z,82.28
2023-02-02T15:49:46.363Z,82.51
2023-02-02T15:55:59.205Z,81.38
2023-02-02T16:01:37.624Z,82.48
2023-02-02T16:06:42.353Z,81.46
2023-02-02T16:11:50.731Z,80.36
2023-02-02T16:16:58.000Z,82.21
2023-02-02T16:22:16.949Z,82.39
2023-02-02T16:28:04.194Z,83.05
2023-02-02T16:33:35.046Z,82.47
2023-02-02T16:38:36.726Z,82.94
2023-02-02T16:43:44.495Z,82.71
2023-02-02T16:50:04.263Z,82.93
2023-02-02T16:55:18.993Z,83.84
2023-02-02T17:00:23.231Z,84.24
2023-02-02T17:05:26.069Z,84.20
2023-02-02T17:10:42.155Z,85.16
2023-02-02T17:15:41.531Z,83.77
2023-02-02T17:20:44.143Z,85.99
2023-02-02T17:25:48.335Z,85.70
2023-02-02T17:30:50.423Z,85.57
2023-02-02T17:35:56.097Z,85.29
2023-02-02T17:41:01.205Z,84.91
2023-02-02T17:46:04.324Z,84.35
2023-02-02T17:51:07.384Z,84.35
2023-02-02T17:56:08.325Z,82.81
2023-02-02T18:01:08.696Z,84.74
2023-02-02T18:06:08.804Z,84.15
2023-02-02T18:11:36.561Z,83.57
2023-02-02T18:16:36.575Z,82.70
2023-02-02T18:21:35.791Z,82.34
2023-02-02T18:26:36.456Z,82.41
2023-02-02T18:31:35.641Z,82.77
2023-02-02T18:36:36.489Z,81.61
2023-02-02T18:41:37.377Z,82.22
2023-02-02T18:46:39.212Z,81.88
2023-02-02T18:51:39.278Z,82.17
2023-02-02T18:56:40.429Z,82.52
2023-02-02T19:01:39.618Z,82.72
2023-02-02T19:06:56.070Z,82.79
2023-02-02T19:11:56.424Z,81.76
2023-02-02T19:17:02.941Z,81.83
2023-02-02T19:22:05.200Z,81.60
2023-02-02T19:27:16.493Z,81.39
2023-02-02T19:32:18.671Z,82.51
2023-02-02T19:37:32.316Z,81.91
2023-02-02T19:42:32.961Z,81.72
2023-02-02T19:47:34.053Z,82.26
2023-02-02T19:52:33.624Z,82.50
2023-02-02T19:57:38.742Z,82.50
2023-02-02T20:02:50.254Z,82.59
2023-02-02T20:07:53.486Z,82.07
2023-02-02T20:12:54.912Z,82.03
2023-02-02T20:17:55.073Z,81.25
2023-02-02T20:22:54.517Z,81.62
2023-02-02T20:27:59.065Z,81.38
2023-02-02T20:33:01.859Z,82.63
2023-02-02T20:38:01.378Z,83.09
2023-02-02T20:43:03.235Z,82.95
2023-02-02T20:48:02.370Z,82.69
2023-02-02T20:53:01.333Z,84.20
2023-02-02T20:58:00.435Z,83.41
2023-02-02T21:03:00.778Z,83.51
2023-02-02T21:08:05.066Z,83.72
2023-02-02T21:13:04.671Z,84.34
2023-02-02T21:18:06.040Z,84.03
2023-02-02T21:23:05.223Z,82.91
2023-02-02T21:28:04.542Z,82.87
2023-02-02T21:33:06.499Z,82.76
2023-02-02T21:38:16.878Z,83.04
2023-02-02T21:43:17.740Z,84.29
2023-02-02T21:48:28.929Z,83.20
2023-02-02T21:53:29.186Z,82.76
2023-02-02T21:58:34.083Z,81.76
2023-02-02T22:03:39.494Z,82.35
2023-02-02T22:08:38.654Z,81.03
2023-02-02T22:13:37.549Z,81.86
2023-02-02T22:18:39.022Z,81.51
2023-02-02T22:23:40.088Z,80.62
2023-02-02T22:28:41.127Z,79.81
2023-02-02T22:33:41.319Z,78.91
2023-02-02T22:38:40.513Z,80.05
2023-02-02T22:43:39.348Z,79.51
2023-02-02T22:48:38.572Z,78.40
2023-02-02T22:53:38.795Z,78.02
2023-02-02T22:58:37.774Z,78.69
2023-02-02T23:03:36.949Z,79.61
2023-02-02T23:08:35.849Z,80.24
2023-02-02T23:13:39.067Z,80.13
2023-02-02T23:18:40.794Z,78.83
2023-02-02T23:23:39.742Z,79.71
2023-02-02T23:28:40.078Z,80.95
2023-02-02T23:33:39.159Z,80.11
2023-02-02T23:38:37.976Z,80.77
2023-02-02T23:43:36.880Z,79.89
2023-02-02T23:48:38.358Z,79.37
2023-02-02T23:53:37.120Z,79.33
2023-02-02T23:58:35.828Z,78.82
